createdAt,value
2022-10-22T00:01:20.566Z,13.10
2022-10-22T00:04:42.222Z,13.10
2022-10-22T00:08:05.179Z,13.10
2022-10-22T00:11:26.972Z,13.00
2022-10-22T00:14:48.620Z,13.00
2022-10-22T00:18:10.561Z,13.00
2022-10-22T00:21:32.107Z,12.90
2022-10-22T00:24:55.015Z,13.00
2022-10-22T00:28:16.602Z,13.00
2022-10-22T00:31:38.151Z,13.00
2022-10-22T00:34:59.695Z,13.00
2022-10-22T00:38:21.294Z,13.00
2022-10-22T00:41:44.360Z,13.00
2022-10-22T00:45:14.610Z,12.90
2022-10-22T00:48:36.150Z,13.00
2022-10-22T00:51:57.692Z,12.90
2022-10-22T00:55:20.382Z,12.90
2022-10-22T00:58:44.375Z,12.90
2022-10-22T01:02:05.928Z,12.90
2022-10-22T01:05:27.628Z,12.90
2022-10-22T01:08:55.509Z,12.90
2022-10-22T01:12:19.651Z,12.90
2022-10-22T01:15:45.446Z,12.80
2022-10-22T01:19:21.767Z,12.90
2022-10-22T01:22:45.845Z,12.80
2022-10-22T01:26:13.277Z,12.80
2022-10-22T01:29:38.360Z,12.80
2022-10-22T01:33:02.025Z,12.80
2022-10-22T01:36:23.629Z,12.80
2022-10-22T01:39:46.078Z,12.80
2022-10-22T01:43:10.395Z,12.70
2022-10-22T01:46:33.311Z,12.80
2022-10-22T01:50:04.356Z,12.80
2022-10-22T01:53:29.800Z,12.70
2022-10-22T01:56:56.539Z,12.70
2022-10-22T02:00:18.708Z,12.70
2022-10-22T02:03:44.655Z,12.70
2022-10-22T02:07:07.571Z,12.70
2022-10-22T02:10:29.864Z,12.70
2022-10-22T02:13:53.179Z,12.70
2022-10-22T02:17:16.088Z,12.70
2022-10-22T02:20:41.170Z,12.60
2022-10-22T02:24:02.724Z,12.60
2022-10-22T02:27:27.670Z,12.60
2022-10-22T02:30:53.207Z,12.60
2022-10-22T02:34:17.132Z,12.60
2022-10-22T02:37:40.343Z,12.60
2022-10-22T02:41:02.186Z,12.60
2022-10-22T02:44:24.254Z,12.70
2022-10-22T02:47:46.261Z,12.60
2022-10-22T02:51:08.131Z,12.60
2022-10-22T02:54:31.083Z,12.60
2022-10-22T02:57:52.627Z,12.60
2022-10-22T03:01:16.162Z,12.70
2022-10-22T03:04:37.962Z,12.70
2022-10-22T03:07:59.505Z,12.70
2022-10-22T03:11:22.413Z,12.80
2022-10-22T03:14:43.946Z,12.80
2022-10-22T03:18:05.552Z,12.70
2022-10-22T03:21:29.825Z,12.70
2022-10-22T03:24:53.250Z,12.80
2022-10-22T03:28:17.757Z,12.80
2022-10-22T03:31:39.327Z,12.70
2022-10-22T03:35:01.222Z,12.80
2022-10-22T03:38:22.936Z,12.70
2022-10-22T03:41:44.852Z,12.70
2022-10-22T03:45:08.697Z,12.70
2022-10-22T03:48:30.371Z,12.70
2022-10-22T03:51:52.134Z,12.70
2022-10-22T03:55:13.750Z,12.60
2022-10-22T03:58:35.979Z,12.60
2022-10-22T04:01:59.195Z,12.60
2022-10-22T04:05:20.755Z,12.60
2022-10-22T04:08:43.358Z,12.60
2022-10-22T04:12:05.497Z,12.60
2022-10-22T04:15:27.023Z,12.60
2022-10-22T04:18:50.555Z,12.50
2022-10-22T04:22:12.167Z,12.50
2022-10-22T04:25:33.697Z,12.50
2022-10-22T04:28:55.348Z,12.50
2022-10-22T04:32:16.895Z,12.60
2022-10-22T04:35:39.962Z,12.50
2022-10-22T04:39:01.875Z,12.60
2022-10-22T04:42:23.453Z,12.60
2022-10-22T04:45:45.070Z,12.60
2022-10-22T04:49:06.626Z,12.60
2022-10-22T04:52:30.769Z,12.60
2022-10-22T04:55:52.291Z,12.50
2022-10-22T04:59:13.863Z,12.50
2022-10-22T05:02:35.402Z,12.50
2022-10-22T05:06:00.485Z,12.60
2022-10-22T05:09:23.512Z,12.60
2022-10-22T05:12:45.030Z,12.60
2022-10-22T05:16:06.983Z,12.50
2022-10-22T05:19:29.740Z,12.50
2022-10-22T05:22:51.279Z,12.50
2022-10-22T05:26:14.946Z,12.50
2022-10-22T05:29:36.657Z,12.50
2022-10-22T05:32:58.196Z,12.50
2022-10-22T05:36:20.802Z,12.50
2022-10-22T05:39:42.591Z,12.50
2022-10-22T05:43:05.672Z,12.40
2022-10-22T05:46:28.138Z,12.50
2022-10-22T05:49:49.661Z,12.60
2022-10-22T05:53:11.489Z,12.50
2022-10-22T05:56:33.971Z,12.60
2022-10-22T05:59:56.921Z,12.60
2022-10-22T06:03:18.451Z,12.60
2022-10-22T06:06:42.062Z,12.70
2022-10-22T06:10:03.866Z,12.70
2022-10-22T06:13:25.537Z,12.70
2022-10-22T06:16:48.802Z,12.80
2022-10-22T06:20:11.110Z,12.80
2022-10-22T06:23:32.680Z,12.90
2022-10-22T06:26:55.454Z,12.90
2022-10-22T06:30:17.143Z,12.90
2022-10-22T06:33:40.320Z,12.90
2022-10-22T06:37:02.726Z,13.00
2022-10-22T06:40:24.579Z,13.00
2022-10-22T06:43:46.296Z,12.90
2022-10-22T06:47:09.696Z,12.90
2022-10-22T06:50:33.676Z,12.90
2022-10-22T06:53:55.653Z,12.90
2022-10-22T06:57:17.559Z,12.90
2022-10-22T07:00:39.077Z,13.00
2022-10-22T07:04:00.910Z,13.10
2022-10-22T07:07:24.406Z,13.20
2022-10-22T07:10:48.656Z,13.30
2022-10-22T07:14:10.319Z,13.40
2022-10-22T07:17:31.898Z,13.50
2022-10-22T07:20:53.650Z,13.60
2022-10-22T07:24:16.867Z,13.70
2022-10-22T07:27:38.688Z,13.80
2022-10-22T07:31:00.727Z,13.90
2022-10-22T07:34:22.282Z,14.00
2022-10-22T07:37:43.957Z,14.00
2022-10-22T07:41:07.180Z,14.00
2022-10-22T07:44:28.847Z,14.20
2022-10-22T07:47:50.401Z,14.30
2022-10-22T07:51:12.183Z,14.40
2022-10-22T07:54:33.736Z,14.70
2022-10-22T07:57:56.639Z,14.70
2022-10-22T08:01:18.253Z,14.70
2022-10-22T08:04:39.852Z,14.70
2022-10-22T08:08:01.403Z,14.90
2022-10-22T08:11:22.976Z,14.90
2022-10-22T08:14:45.852Z,14.90
2022-10-22T08:18:07.398Z,14.90
2022-10-22T08:21:28.983Z,14.90
2022-10-22T08:24:50.518Z,14.90
2022-10-22T08:28:12.243Z,15.00
2022-10-22T08:31:35.194Z,15.00
2022-10-22T08:34:58.082Z,15.10
2022-10-22T08:38:19.699Z,15.60
2022-10-22T08:41:43.921Z,17.60
2022-10-22T08:45:12.822Z,20.20
2022-10-22T08:48:41.318Z,22.10
2022-10-22T08:52:03.549Z,23.40
2022-10-22T08:55:25.329Z,23.70
2022-10-22T08:58:49.480Z,23.40
